sensor_id;sensor_type;location;lat;lon;timestamp;P1;durP1;ratioP1;P2;durP2;ratioP2
85769;SDS011;76210;41.986;21.462;2024-02-15T00:01:08;14.25;;;9.52;;
85769;SDS011;76210;41.986;21.462;2024-02-15T00:03:33;15.20;;;10.48;;
85769;SDS011;76210;41.986;21.462;2024-02-15T00:06:00;13.23;;;9.38;;
85769;SDS011;76210;41.986;21.462;2024-02-15T00:08:25;13.15;;;9.65;;
85769;SDS011;76210;41.986;21.462;2024-02-15T00:10:52;11.30;;;9.50;;
85769;SDS011;76210;41.986;21.462;2024-02-15T00:13:18;12.27;;;9.50;;
85769;SDS011;76210;41.986;21.462;2024-02-15T00:15:44;14.23;;;10.10;;
85769;SDS011;76210;41.986;21.462;2024-02-15T00:18:13;15.05;;;9.63;;
85769;SDS011;76210;41.986;21.462;2024-02-15T00:20:39;15.60;;;10.63;;
85769;SDS011;76210;41.986;21.462;2024-02-15T00:23:04;12.15;;;9.02;;
85769;SDS011;76210;41.986;21.462;2024-02-15T00:25:30;15.02;;;10.60;;
85769;SDS011;76210;41.986;21.462;2024-02-15T00:27:55;14.82;;;10.35;;
85769;SDS011;76210;41.986;21.462;2024-02-15T00:30:21;12.15;;;9.98;;
85769;SDS011;76210;41.986;21.462;2024-02-15T00:32:46;15.38;;;10.55;;
85769;SDS011;76210;41.986;21.462;2024-02-15T00:35:12;14.63;;;10.25;;
85769;SDS011;76210;41.986;21.462;2024-02-15T00:37:38;13.32;;;9.73;;
85769;SDS011;76210;41.986;21.462;2024-02-15T00:40:05;14.50;;;9.35;;
85769;SDS011;76210;41.986;21.462;2024-02-15T00:42:31;14.88;;;9.55;;
85769;SDS011;76210;41.986;21.462;2024-02-15T00:44:59;19.25;;;12.80;;
85769;SDS011;76210;41.986;21.462;2024-02-15T00:47:24;12.73;;;9.55;;
85769;SDS011;76210;41.986;21.462;2024-02-15T00:49:49;14.35;;;9.80;;
85769;SDS011;76210;41.986;21.462;2024-02-15T00:52:17;16.13;;;11.25;;
85769;SDS011;76210;41.986;21.462;2024-02-15T00:54:44;17.13;;;10.85;;
85769;SDS011;76210;41.986;21.462;2024-02-15T00:57:09;15.10;;;10.77;;
85769;SDS011;76210;41.986;21.462;2024-02-15T00:59:34;19.10;;;11.73;;
85769;SDS011;76210;41.986;21.462;2024-02-15T01:02:01;15.38;;;10.88;;
85769;SDS011;76210;41.986;21.462;2024-02-15T01:04:27;16.92;;;11.25;;
85769;SDS011;76210;41.986;21.462;2024-02-15T01:06:52;16.23;;;10.73;;
85769;SDS011;76210;41.986;21.462;2024-02-15T01:09:18;14.77;;;10.30;;
85769;SDS011;76210;41.986;21.462;2024-02-15T01:11:43;13.25;;;9.88;;
85769;SDS011;76210;41.986;21.462;2024-02-15T01:14:08;14.52;;;9.95;;
85769;SDS011;76210;41.986;21.462;2024-02-15T01:16:35;14.77;;;10.13;;
85769;SDS011;76210;41.986;21.462;2024-02-15T01:19:01;13.13;;;9.85;;
85769;SDS011;76210;41.986;21.462;2024-02-15T01:21:26;15.95;;;10.75;;
85769;SDS011;76210;41.986;21.462;2024-02-15T01:23:51;14.02;;;10.98;;
85769;SDS011;76210;41.986;21.462;2024-02-15T01:26:18;14.13;;;10.55;;
85769;SDS011;76210;41.986;21.462;2024-02-15T01:28:44;17.02;;;10.88;;
85769;SDS011;76210;41.986;21.462;2024-02-15T01:31:10;15.00;;;10.38;;
85769;SDS011;76210;41.986;21.462;2024-02-15T01:33:36;14.82;;;10.05;;
85769;SDS011;76210;41.986;21.462;2024-02-15T01:36:01;17.48;;;11.70;;
85769;SDS011;76210;41.986;21.462;2024-02-15T01:38:27;14.38;;;9.55;;
85769;SDS011;76210;41.986;21.462;2024-02-15T01:40:52;13.57;;;9.50;;
85769;SDS011;76210;41.986;21.462;2024-02-15T01:43:17;15.27;;;10.13;;
85769;SDS011;76210;41.986;21.462;2024-02-15T01:45:43;14.13;;;10.20;;
85769;SDS011;76210;41.986;21.462;2024-02-15T01:48:08;14.15;;;9.82;;
85769;SDS011;76210;41.986;21.462;2024-02-15T01:50:35;15.07;;;10.23;;
85769;SDS011;76210;41.986;21.462;2024-02-15T01:53:01;12.57;;;8.95;;
85769;SDS011;76210;41.986;21.462;2024-02-15T01:55:26;14.15;;;10.30;;
85769;SDS011;76210;41.986;21.462;2024-02-15T01:57:51;13.32;;;10.15;;
85769;SDS011;76210;41.986;21.462;2024-02-15T02:00:17;15.05;;;9.18;;
85769;SDS011;76210;41.986;21.462;2024-02-15T02:02:44;14.40;;;9.18;;
85769;SDS011;76210;41.986;21.462;2024-02-15T02:05:09;15.35;;;10.07;;
85769;SDS011;76210;41.986;21.462;2024-02-15T02:07:35;13.40;;;10.30;;
85769;SDS011;76210;41.986;21.462;2024-02-15T02:10:04;15.45;;;10.27;;
85769;SDS011;76210;41.986;21.462;2024-02-15T02:12:29;15.45;;;11.05;;
85769;SDS011;76210;41.986;21.462;2024-02-15T02:14:56;15.75;;;10.30;;
85769;SDS011;76210;41.986;21.462;2024-02-15T02:17:21;13.65;;;9.90;;
85769;SDS011;76210;41.986;21.462;2024-02-15T02:19:46;14.82;;;10.90;;
85769;SDS011;76210;41.986;21.462;2024-02-15T02:22:14;14.80;;;10.00;;
85769;SDS011;76210;41.986;21.462;2024-02-15T02:27:18;13.23;;;9.65;;
85769;SDS011;76210;41.986;21.462;2024-02-15T02:29:44;16.83;;;10.65;;
85769;SDS011;76210;41.986;21.462;2024-02-15T02:32:11;16.90;;;11.25;;
85769;SDS011;76210;41.986;21.462;2024-02-15T02:34:36;15.93;;;10.80;;
85769;SDS011;76210;41.986;21.462;2024-02-15T02:37:01;15.63;;;10.47;;
85769;SDS011;76210;41.986;21.462;2024-02-15T02:39:30;18.58;;;10.50;;
85769;SDS011;76210;41.986;21.462;2024-02-15T02:41:56;17.40;;;10.90;;
85769;SDS011;76210;41.986;21.462;2024-02-15T02:44:22;15.52;;;10.95;;
85769;SDS011;76210;41.986;21.462;2024-02-15T02:46:47;17.20;;;12.57;;
85769;SDS011;76210;41.986;21.462;2024-02-15T02:49:12;20.27;;;13.65;;
85769;SDS011;76210;41.986;21.462;2024-02-15T02:51:38;24.33;;;14.38;;
85769;SDS011;76210;41.986;21.462;2024-02-15T02:54:03;22.80;;;13.73;;
85769;SDS011;76210;41.986;21.462;2024-02-15T02:56:31;22.70;;;13.63;;
85769;SDS011;76210;41.986;21.462;2024-02-15T02:58:57;19.45;;;12.60;;
85769;SDS011;76210;41.986;21.462;2024-02-15T03:01:22;26.80;;;13.60;;
85769;SDS011;76210;41.986;21.462;2024-02-15T03:03:50;20.65;;;12.85;;
85769;SDS011;76210;41.986;21.462;2024-02-15T03:06:15;20.90;;;14.38;;
85769;SDS011;76210;41.986;21.462;2024-02-15T03:08:40;24.27;;;13.93;;
85769;SDS011;76210;41.986;21.462;2024-02-15T03:11:05;20.30;;;13.48;;
85769;SDS011;76210;41.986;21.462;2024-02-15T03:13:31;23.92;;;14.68;;
85769;SDS011;76210;41.986;21.462;2024-02-15T03:15:56;19.60;;;13.27;;
85769;SDS011;76210;41.986;21.462;2024-02-15T03:18:21;20.90;;;13.57;;
85769;SDS011;76210;41.986;21.462;2024-02-15T03:20:48;22.17;;;13.35;;
85769;SDS011;76210;41.986;21.462;2024-02-15T03:23:14;24.20;;;13.05;;
85769;SDS011;76210;41.986;21.462;2024-02-15T03:25:39;21.77;;;13.18;;
85769;SDS011;76210;41.986;21.462;2024-02-15T03:28:04;23.58;;;13.77;;
85769;SDS011;76210;41.986;21.462;2024-02-15T03:30:30;20.40;;;13.05;;
85769;SDS011;76210;41.986;21.462;2024-02-15T03:32:56;20.83;;;13.82;;
85769;SDS011;76210;41.986;21.462;2024-02-15T03:35:23;20.40;;;12.95;;
85769;SDS011;76210;41.986;21.462;2024-02-15T03:37:49;24.73;;;14.63;;
85769;SDS011;76210;41.986;21.462;2024-02-15T03:40:16;22.75;;;15.10;;
85769;SDS011;76210;41.986;21.462;2024-02-15T03:42:41;22.75;;;14.27;;
85769;SDS011;76210;41.986;21.462;2024-02-15T03:45:07;24.17;;;14.27;;
85769;SDS011;76210;41.986;21.462;2024-02-15T03:47:33;23.92;;;14.82;;
85769;SDS011;76210;41.986;21.462;2024-02-15T03:49:59;21.85;;;13.93;;
85769;SDS011;76210;41.986;21.462;2024-02-15T03:52:24;21.88;;;13.60;;
85769;SDS011;76210;41.986;21.462;2024-02-15T03:54:49;23.03;;;14.63;;
85769;SDS011;76210;41.986;21.462;2024-02-15T03:57:14;21.13;;;15.00;;
85769;SDS011;76210;41.986;21.462;2024-02-15T03:59:42;23.50;;;15.13;;
85769;SDS011;76210;41.986;21.462;2024-02-15T04:02:07;22.50;;;13.88;;
85769;SDS011;76210;41.986;21.462;2024-02-15T04:07:02;24.03;;;14.60;;
85769;SDS011;76210;41.986;21.462;2024-02-15T04:09:28;21.50;;;14.02;;
85769;SDS011;76210;41.986;21.462;2024-02-15T04:11:53;24.27;;;13.90;;
85769;SDS011;76210;41.986;21.462;2024-02-15T04:14:19;21.02;;;13.98;;
85769;SDS011;76210;41.986;21.462;2024-02-15T04:16:44;17.85;;;12.15;;
85769;SDS011;76210;41.986;21.462;2024-02-15T04:19:10;21.55;;;14.13;;
85769;SDS011;76210;41.986;21.462;2024-02-15T04:21:35;22.48;;;13.90;;
85769;SDS011;76210;41.986;21.462;2024-02-15T04:24:01;19.05;;;12.85;;
85769;SDS011;76210;41.986;21.462;2024-02-15T04:26:26;21.95;;;13.60;;
85769;SDS011;76210;41.986;21.462;2024-02-15T04:28:54;21.75;;;13.35;;
85769;SDS011;76210;41.986;21.462;2024-02-15T04:31:20;29.23;;;17.77;;
85769;SDS011;76210;41.986;21.462;2024-02-15T04:33:46;34.00;;;20.83;;
85769;SDS011;76210;41.986;21.462;2024-02-15T04:36:14;30.27;;;19.40;;
85769;SDS011;76210;41.986;21.462;2024-02-15T04:38:40;28.50;;;18.02;;
85769;SDS011;76210;41.986;21.462;2024-02-15T04:41:05;29.50;;;19.60;;
85769;SDS011;76210;41.986;21.462;2024-02-15T04:43:33;30.33;;;20.17;;
85769;SDS011;76210;41.986;21.462;2024-02-15T04:45:58;31.17;;;20.40;;
85769;SDS011;76210;41.986;21.462;2024-02-15T04:48:25;28.42;;;18.88;;
85769;SDS011;76210;41.986;21.462;2024-02-15T04:50:50;31.50;;;18.52;;
85769;SDS011;76210;41.986;21.462;2024-02-15T04:53:17;31.77;;;19.40;;
85769;SDS011;76210;41.986;21.462;2024-02-15T04:55:42;35.23;;;20.07;;
85769;SDS011;76210;41.986;21.462;2024-02-15T04:58:08;39.75;;;24.10;;
85769;SDS011;76210;41.986;21.462;2024-02-15T05:00:35;36.08;;;22.75;;
85769;SDS011;76210;41.986;21.462;2024-02-15T05:03:01;33.55;;;21.45;;
85769;SDS011;76210;41.986;21.462;2024-02-15T05:05:26;33.97;;;21.92;;
85769;SDS011;76210;41.986;21.462;2024-02-15T05:07:54;37.22;;;21.45;;
85769;SDS011;76210;41.986;21.462;2024-02-15T05:10:19;33.63;;;21.20;;
85769;SDS011;76210;41.986;21.462;2024-02-15T05:12:45;32.58;;;21.73;;
85769;SDS011;76210;41.986;21.462;2024-02-15T05:15:12;35.47;;;23.55;;
85769;SDS011;76210;41.986;21.462;2024-02-15T05:17:42;32.83;;;20.30;;
85769;SDS011;76210;41.986;21.462;2024-02-15T05:20:10;35.20;;;23.20;;
85769;SDS011;76210;41.986;21.462;2024-02-15T05:22:39;31.95;;;19.65;;
85769;SDS011;76210;41.986;21.462;2024-02-15T05:25:07;30.92;;;19.45;;
85769;SDS011;76210;41.986;21.462;2024-02-15T05:27:33;30.35;;;19.65;;
85769;SDS011;76210;41.986;21.462;2024-02-15T05:29:58;26.77;;;17.73;;
85769;SDS011;76210;41.986;21.462;2024-02-15T05:32:24;28.20;;;18.27;;
85769;SDS011;76210;41.986;21.462;2024-02-15T05:34:51;29.02;;;18.52;;
85769;SDS011;76210;41.986;21.462;2024-02-15T05:37:16;33.78;;;19.05;;
85769;SDS011;76210;41.986;21.462;2024-02-15T05:39:41;27.08;;;17.67;;
85769;SDS011;76210;41.986;21.462;2024-02-15T05:42:07;28.38;;;16.77;;
85769;SDS011;76210;41.986;21.462;2024-02-15T05:44:32;31.85;;;17.80;;
85769;SDS011;76210;41.986;21.462;2024-02-15T05:46:59;28.88;;;17.50;;
85769;SDS011;76210;41.986;21.462;2024-02-15T05:49:25;29.52;;;17.60;;
85769;SDS011;76210;41.986;21.462;2024-02-15T05:51:51;29.60;;;17.23;;
85769;SDS011;76210;41.986;21.462;2024-02-15T05:54:18;29.08;;;18.42;;
85769;SDS011;76210;41.986;21.462;2024-02-15T05:56:43;29.95;;;19.73;;
85769;SDS011;76210;41.986;21.462;2024-02-15T05:59:09;27.77;;;18.75;;
85769;SDS011;76210;41.986;21.462;2024-02-15T06:01:39;30.30;;;18.60;;
85769;SDS011;76210;41.986;21.462;2024-02-15T06:04:05;32.20;;;18.58;;
85769;SDS011;76210;41.986;21.462;2024-02-15T06:06:33;29.98;;;18.40;;
85769;SDS011;76210;41.986;21.462;2024-02-15T06:08:58;27.23;;;17.70;;
85769;SDS011;76210;41.986;21.462;2024-02-15T06:11:25;29.13;;;18.55;;
85769;SDS011;76210;41.986;21.462;2024-02-15T06:13:50;30.35;;;18.40;;
85769;SDS011;76210;41.986;21.462;2024-02-15T06:16:15;28.27;;;19.08;;
85769;SDS011;76210;41.986;21.462;2024-02-15T06:18:41;33.17;;;18.52;;
85769;SDS011;76210;41.986;21.462;2024-02-15T06:21:06;29.80;;;18.67;;
85769;SDS011;76210;41.986;21.462;2024-02-15T06:23:31;27.90;;;18.42;;
85769;SDS011;76210;41.986;21.462;2024-02-15T06:25:58;32.30;;;20.27;;
85769;SDS011;76210;41.986;21.462;2024-02-15T06:28:24;31.45;;;20.08;;
85769;SDS011;76210;41.986;21.462;2024-02-15T06:31:09;29.95;;;20.33;;
85769;SDS011;76210;41.986;21.462;2024-02-15T06:33:53;28.00;;;17.88;;
85769;SDS011;76210;41.986;21.462;2024-02-15T06:36:40;28.55;;;19.77;;
85769;SDS011;76210;41.986;21.462;2024-02-15T06:39:25;28.88;;;18.55;;
85769;SDS011;76210;41.986;21.462;2024-02-15T06:42:06;30.27;;;18.58;;
85769;SDS011;76210;41.986;21.462;2024-02-15T06:44:31;28.23;;;18.67;;
85769;SDS011;76210;41.986;21.462;2024-02-15T06:46:57;26.77;;;18.35;;
85769;SDS011;76210;41.986;21.462;2024-02-15T06:49:23;26.67;;;18.83;;
85769;SDS011;76210;41.986;21.462;2024-02-15T06:51:49;31.27;;;18.90;;
85769;SDS011;76210;41.986;21.462;2024-02-15T06:54:15;24.23;;;18.70;;
85769;SDS011;76210;41.986;21.462;2024-02-15T06:56:42;24.65;;;17.30;;
85769;SDS011;76210;41.986;21.462;2024-02-15T06:59:08;26.23;;;19.17;;
85769;SDS011;76210;41.986;21.462;2024-02-15T07:01:35;25.02;;;20.42;;
85769;SDS011;76210;41.986;21.462;2024-02-15T07:04:00;23.92;;;17.75;;
85769;SDS011;76210;41.986;21.462;2024-02-15T07:06:28;28.38;;;20.75;;
85769;SDS011;76210;41.986;21.462;2024-02-15T07:08:54;26.13;;;17.65;;
85769;SDS011;76210;41.986;21.462;2024-02-15T07:11:21;29.23;;;20.30;;
85769;SDS011;76210;41.986;21.462;2024-02-15T07:13:47;40.83;;;24.17;;
85769;SDS011;76210;41.986;21.462;2024-02-15T07:16:12;37.35;;;28.83;;
85769;SDS011;76210;41.986;21.462;2024-02-15T07:18:40;41.50;;;28.27;;
85769;SDS011;76210;41.986;21.462;2024-02-15T07:21:05;40.65;;;28.30;;
85769;SDS011;76210;41.986;21.462;2024-02-15T07:23:36;37.95;;;27.73;;
85769;SDS011;76210;41.986;21.462;2024-02-15T07:26:01;32.65;;;24.25;;
85769;SDS011;76210;41.986;21.462;2024-02-15T07:28:28;39.65;;;28.48;;
85769;SDS011;76210;41.986;21.462;2024-02-15T07:30:55;34.38;;;23.85;;
85769;SDS011;76210;41.986;21.462;2024-02-15T07:33:21;35.08;;;24.20;;
85769;SDS011;76210;41.986;21.462;2024-02-15T07:35:47;33.88;;;23.75;;
85769;SDS011;76210;41.986;21.462;2024-02-15T07:38:16;31.60;;;25.17;;
85769;SDS011;76210;41.986;21.462;2024-02-15T07:40:41;39.80;;;26.13;;
85769;SDS011;76210;41.986;21.462;2024-02-15T07:43:06;31.30;;;23.13;;
85769;SDS011;76210;41.986;21.462;2024-02-15T07:45:31;29.98;;;22.20;;
85769;SDS011;76210;41.986;21.462;2024-02-15T07:48:00;30.15;;;22.52;;
85769;SDS011;76210;41.986;21.462;2024-02-15T07:50:26;24.83;;;21.08;;
85769;SDS011;76210;41.986;21.462;2024-02-15T07:52:51;27.20;;;19.83;;
85769;SDS011;76210;41.986;21.462;2024-02-15T07:55:16;25.83;;;20.52;;
85769;SDS011;76210;41.986;21.462;2024-02-15T07:57:42;25.35;;;20.15;;
85769;SDS011;76210;41.986;21.462;2024-02-15T08:00:07;27.17;;;19.05;;
85769;SDS011;76210;41.986;21.462;2024-02-15T08:02:39;26.33;;;17.92;;
85769;SDS011;76210;41.986;21.462;2024-02-15T08:05:08;21.15;;;15.38;;
85769;SDS011;76210;41.986;21.462;2024-02-15T08:07:40;19.20;;;16.13;;
85769;SDS011;76210;41.986;21.462;2024-02-15T08:10:06;19.20;;;15.75;;
85769;SDS011;76210;41.986;21.462;2024-02-15T08:12:37;21.52;;;15.52;;
85769;SDS011;76210;41.986;21.462;2024-02-15T08:15:03;17.87;;;14.20;;
85769;SDS011;76210;41.986;21.462;2024-02-15T08:17:29;18.23;;;13.60;;
85769;SDS011;76210;41.986;21.462;2024-02-15T08:19:55;15.02;;;12.68;;
85769;SDS011;76210;41.986;21.462;2024-02-15T08:22:20;15.98;;;13.18;;
85769;SDS011;76210;41.986;21.462;2024-02-15T08:24:49;18.17;;;13.32;;
85769;SDS011;76210;41.986;21.462;2024-02-15T08:27:14;14.40;;;12.57;;
85769;SDS011;76210;41.986;21.462;2024-02-15T08:29:41;17.88;;;13.50;;
85769;SDS011;76210;41.986;21.462;2024-02-15T08:32:06;18.77;;;13.70;;
85769;SDS011;76210;41.986;21.462;2024-02-15T08:34:32;16.55;;;12.98;;
85769;SDS011;76210;41.986;21.462;2024-02-15T08:36:58;14.45;;;12.00;;
85769;SDS011;76210;41.986;21.462;2024-02-15T08:39:23;14.80;;;12.43;;
85769;SDS011;76210;41.986;21.462;2024-02-15T08:41:50;17.05;;;13.02;;
85769;SDS011;76210;41.986;21.462;2024-02-15T08:44:15;16.20;;;12.65;;
85769;SDS011;76210;41.986;21.462;2024-02-15T08:46:44;12.68;;;11.43;;
85769;SDS011;76210;41.986;21.462;2024-02-15T08:49:09;13.40;;;12.10;;
85769;SDS011;76210;41.986;21.462;2024-02-15T08:51:37;13.73;;;12.32;;
85769;SDS011;76210;41.986;21.462;2024-02-15T08:54:02;14.50;;;12.27;;
85769;SDS011;76210;41.986;21.462;2024-02-15T08:56:28;15.43;;;12.60;;
85769;SDS011;76210;41.986;21.462;2024-02-15T08:58:53;14.88;;;11.85;;
85769;SDS011;76210;41.986;21.462;2024-02-15T09:01:19;13.07;;;11.85;;
85769;SDS011;76210;41.986;21.462;2024-02-15T09:03:44;13.95;;;12.13;;
85769;SDS011;76210;41.986;21.462;2024-02-15T09:06:10;13.48;;;12.07;;
85769;SDS011;76210;41.986;21.462;2024-02-15T09:08:35;16.42;;;12.93;;
85769;SDS011;76210;41.986;21.462;2024-02-15T09:11:01;14.02;;;12.40;;
85769;SDS011;76210;41.986;21.462;2024-02-15T09:13:26;14.70;;;11.98;;
85769;SDS011;76210;41.986;21.462;2024-02-15T09:15:51;16.50;;;13.52;;
85769;SDS011;76210;41.986;21.462;2024-02-15T09:18:16;13.83;;;12.27;;
85769;SDS011;76210;41.986;21.462;2024-02-15T09:20:47;12.85;;;11.50;;
85769;SDS011;76210;41.986;21.462;2024-02-15T09:23:14;12.23;;;10.93;;
85769;SDS011;76210;41.986;21.462;2024-02-15T09:25:39;12.57;;;10.75;;
85769;SDS011;76210;41.986;21.462;2024-02-15T09:28:05;12.23;;;10.93;;
85769;SDS011;76210;41.986;21.462;2024-02-15T09:30:30;12.13;;;10.80;;
85769;SDS011;76210;41.986;21.462;2024-02-15T09:32:57;12.50;;;10.73;;
85769;SDS011;76210;41.986;21.462;2024-02-15T09:35:22;13.05;;;11.13;;
85769;SDS011;76210;41.986;21.462;2024-02-15T09:37:48;13.15;;;11.82;;
85769;SDS011;76210;41.986;21.462;2024-02-15T09:40:17;11.63;;;10.43;;
85769;SDS011;76210;41.986;21.462;2024-02-15T09:42:43;13.02;;;9.75;;
85769;SDS011;76210;41.986;21.462;2024-02-15T09:45:10;12.38;;;10.50;;
85769;SDS011;76210;41.986;21.462;2024-02-15T09:47:36;12.13;;;10.18;;
85769;SDS011;76210;41.986;21.462;2024-02-15T09:50:11;13.60;;;11.02;;
85769;SDS011;76210;41.986;21.462;2024-02-15T09:52:49;12.73;;;10.60;;
85769;SDS011;76210;41.986;21.462;2024-02-15T09:55:15;14.82;;;12.63;;
85769;SDS011;76210;41.986;21.462;2024-02-15T09:57:44;13.73;;;11.93;;
85769;SDS011;76210;41.986;21.462;2024-02-15T10:00:11;13.40;;;9.85;;
85769;SDS011;76210;41.986;21.462;2024-02-15T10:02:38;13.18;;;11.43;;
85769;SDS011;76210;41.986;21.462;2024-02-15T10:05:05;13.77;;;10.27;;
85769;SDS011;76210;41.986;21.462;2024-02-15T10:07:30;11.10;;;9.20;;
85769;SDS011;76210;41.986;21.462;2024-02-15T10:09:56;10.98;;;9.02;;
85769;SDS011;76210;41.986;21.462;2024-02-15T10:12:21;10.55;;;9.38;;
85769;SDS011;76210;41.986;21.462;2024-02-15T10:14:48;10.98;;;9.27;;
85769;SDS011;76210;41.986;21.462;2024-02-15T10:17:18;11.40;;;8.95;;
85769;SDS011;76210;41.986;21.462;2024-02-15T10:19:43;12.20;;;8.80;;
85769;SDS011;76210;41.986;21.462;2024-02-15T10:22:09;9.88;;;8.75;;
85769;SDS011;76210;41.986;21.462;2024-02-15T10:24:35;16.38;;;10.07;;
85769;SDS011;76210;41.986;21.462;2024-02-15T10:27:02;12.40;;;8.68;;
85769;SDS011;76210;41.986;21.462;2024-02-15T10:29:29;11.55;;;9.48;;
85769;SDS011;76210;41.986;21.462;2024-02-15T10:31:55;11.35;;;8.50;;
85769;SDS011;76210;41.986;21.462;2024-02-15T10:34:21;11.05;;;8.13;;
85769;SDS011;76210;41.986;21.462;2024-02-15T10:36:48;15.50;;;10.15;;
85769;SDS011;76210;41.986;21.462;2024-02-15T10:39:14;12.43;;;8.57;;
85769;SDS011;76210;41.986;21.462;2024-02-15T10:41:44;12.13;;;8.57;;
85769;SDS011;76210;41.986;21.462;2024-02-15T10:44:15;11.65;;;8.40;;
85769;SDS011;76210;41.986;21.462;2024-02-15T10:46:40;11.20;;;8.25;;
85769;SDS011;76210;41.986;21.462;2024-02-15T10:49:06;10.73;;;7.63;;
85769;SDS011;76210;41.986;21.462;2024-02-15T10:51:32;11.82;;;8.77;;
85769;SDS011;76210;41.986;21.462;2024-02-15T10:54:02;11.15;;;7.97;;
85769;SDS011;76210;41.986;21.462;2024-02-15T10:56:37;13.13;;;8.40;;
85769;SDS011;76210;41.986;21.462;2024-02-15T10:59:14;13.57;;;7.80;;
85769;SDS011;76210;41.986;21.462;2024-02-15T11:01:41;11.85;;;7.55;;
85769;SDS011;76210;41.986;21.462;2024-02-15T11:04:08;10.15;;;7.85;;
85769;SDS011;76210;41.986;21.462;2024-02-15T11:06:35;11.15;;;7.05;;
85769;SDS011;76210;41.986;21.462;2024-02-15T11:09:00;10.60;;;7.40;;
85769;SDS011;76210;41.986;21.462;2024-02-15T11:11:26;11.68;;;7.32;;
85769;SDS011;76210;41.986;21.462;2024-02-15T11:14:22;13.45;;;8.75;;
85769;SDS011;76210;41.986;21.462;2024-02-15T11:16:41;13.13;;;8.15;;
85769;SDS011;76210;41.986;21.462;2024-02-15T11:19:06;14.48;;;7.80;;
85769;SDS011;76210;41.986;21.462;2024-02-15T11:24:25;13.63;;;7.80;;
85769;SDS011;76210;41.986;21.462;2024-02-15T11:26:50;30.73;;;9.57;;
85769;SDS011;76210;41.986;21.462;2024-02-15T11:31:59;10.55;;;7.35;;
85769;SDS011;76210;41.986;21.462;2024-02-15T11:34:43;13.02;;;7.85;;
85769;SDS011;76210;41.986;21.462;2024-02-15T11:40:11;13.82;;;8.07;;
85769;SDS011;76210;41.986;21.462;2024-02-15T11:42:38;10.68;;;7.47;;
85769;SDS011;76210;41.986;21.462;2024-02-15T11:45:07;15.05;;;8.02;;
85769;SDS011;76210;41.986;21.462;2024-02-15T11:47:32;17.02;;;7.35;;
85769;SDS011;76210;41.986;21.462;2024-02-15T11:50:01;14.05;;;9.52;;
85769;SDS011;76210;41.986;21.462;2024-02-15T11:52:28;11.20;;;7.45;;
85769;SDS011;76210;41.986;21.462;2024-02-15T11:54:53;15.50;;;8.65;;
85769;SDS011;76210;41.986;21.462;2024-02-15T11:57:18;23.23;;;12.05;;
85769;SDS011;76210;41.986;21.462;2024-02-15T12:00:01;11.85;;;8.18;;
85769;SDS011;76210;41.986;21.462;2024-02-15T12:03:01;10.30;;;7.22;;
85769;SDS011;76210;41.986;21.462;2024-02-15T12:05:47;13.27;;;7.47;;
85769;SDS011;76210;41.986;21.462;2024-02-15T12:08:32;16.35;;;10.02;;
85769;SDS011;76210;41.986;21.462;2024-02-15T12:11:16;11.13;;;6.90;;
85769;SDS011;76210;41.986;21.462;2024-02-15T12:14:00;13.43;;;7.78;;
85769;SDS011;76210;41.986;21.462;2024-02-15T12:16:44;10.27;;;7.13;;
85769;SDS011;76210;41.986;21.462;2024-02-15T12:19:28;10.25;;;7.18;;
85769;SDS011;76210;41.986;21.462;2024-02-15T12:21:54;12.98;;;7.55;;
85769;SDS011;76210;41.986;21.462;2024-02-15T12:24:20;13.20;;;8.05;;
85769;SDS011;76210;41.986;21.462;2024-02-15T12:26:50;13.45;;;7.97;;
85769;SDS011;76210;41.986;21.462;2024-02-15T12:29:18;11.55;;;6.93;;
85769;SDS011;76210;41.986;21.462;2024-02-15T12:31:43;12.55;;;7.13;;
85769;SDS011;76210;41.986;21.462;2024-02-15T12:34:09;12.45;;;7.47;;
85769;SDS011;76210;41.986;21.462;2024-02-15T12:36:35;11.98;;;7.45;;
85769;SDS011;76210;41.986;21.462;2024-02-15T12:39:05;13.13;;;7.43;;
85769;SDS011;76210;41.986;21.462;2024-02-15T12:41:40;11.10;;;6.70;;
85769;SDS011;76210;41.986;21.462;2024-02-15T12:44:09;11.98;;;7.18;;
85769;SDS011;76210;41.986;21.462;2024-02-15T12:46:35;11.85;;;7.32;;
85769;SDS011;76210;41.986;21.462;2024-02-15T12:49:24;13.40;;;6.75;;
85769;SDS011;76210;41.986;21.462;2024-02-15T12:51:53;10.75;;;6.15;;
85769;SDS011;76210;41.986;21.462;2024-02-15T12:54:22;9.68;;;6.78;;
85769;SDS011;76210;41.986;21.462;2024-02-15T12:56:47;14.27;;;7.35;;
85769;SDS011;76210;41.986;21.462;2024-02-15T12:59:18;12.43;;;6.65;;
85769;SDS011;76210;41.986;21.462;2024-02-15T13:01:46;11.02;;;6.30;;
85769;SDS011;76210;41.986;21.462;2024-02-15T13:04:29;14.48;;;7.57;;
85769;SDS011;76210;41.986;21.462;2024-02-15T13:06:55;11.90;;;6.43;;
85769;SDS011;76210;41.986;21.462;2024-02-15T13:09:20;9.27;;;6.27;;
85769;SDS011;76210;41.986;21.462;2024-02-15T13:11:47;12.18;;;7.07;;
85769;SDS011;76210;41.986;21.462;2024-02-15T13:14:15;14.40;;;6.95;;
85769;SDS011;76210;41.986;21.462;2024-02-15T13:16:40;9.32;;;5.97;;
85769;SDS011;76210;41.986;21.462;2024-02-15T13:19:08;10.23;;;6.57;;
85769;SDS011;76210;41.986;21.462;2024-02-15T13:21:33;11.50;;;6.72;;
85769;SDS011;76210;41.986;21.462;2024-02-15T13:23:59;12.30;;;7.20;;
85769;SDS011;76210;41.986;21.462;2024-02-15T13:26:24;8.55;;;6.15;;
85769;SDS011;76210;41.986;21.462;2024-02-15T13:28:51;11.23;;;6.75;;
85769;SDS011;76210;41.986;21.462;2024-02-15T13:31:17;15.85;;;7.60;;
85769;SDS011;76210;41.986;21.462;2024-02-15T13:33:42;13.32;;;6.43;;
85769;SDS011;76210;41.986;21.462;2024-02-15T13:36:07;11.40;;;6.15;;
85769;SDS011;76210;41.986;21.462;2024-02-15T13:38:36;16.25;;;6.32;;
85769;SDS011;76210;41.986;21.462;2024-02-15T13:41:02;13.52;;;6.45;;
85769;SDS011;76210;41.986;21.462;2024-02-15T13:43:28;12.05;;;6.25;;
85769;SDS011;76210;41.986;21.462;2024-02-15T13:45:53;12.18;;;6.80;;
85769;SDS011;76210;41.986;21.462;2024-02-15T13:48:18;11.07;;;5.97;;
85769;SDS011;76210;41.986;21.462;2024-02-15T13:50:44;11.20;;;6.33;;
85769;SDS011;76210;41.986;21.462;2024-02-15T13:53:09;12.20;;;6.38;;
85769;SDS011;76210;41.986;21.462;2024-02-15T13:55:34;10.23;;;6.03;;
85769;SDS011;76210;41.986;21.462;2024-02-15T13:58:02;13.05;;;6.20;;
85769;SDS011;76210;41.986;21.462;2024-02-15T14:00:27;11.65;;;6.80;;
85769;SDS011;76210;41.986;21.462;2024-02-15T14:02:59;12.07;;;6.65;;
85769;SDS011;76210;41.986;21.462;2024-02-15T14:05:25;10.43;;;7.03;;
85769;SDS011;76210;41.986;21.462;2024-02-15T14:07:54;10.00;;;5.85;;
85769;SDS011;76210;41.986;21.462;2024-02-15T14:10:20;11.65;;;6.90;;
85769;SDS011;76210;41.986;21.462;2024-02-15T14:12:46;12.27;;;6.28;;
85769;SDS011;76210;41.986;21.462;2024-02-15T14:15:12;8.77;;;6.15;;
85769;SDS011;76210;41.986;21.462;2024-02-15T14:17:38;9.80;;;6.05;;
85769;SDS011;76210;41.986;21.462;2024-02-15T14:20:03;9.68;;;6.47;;
85769;SDS011;76210;41.986;21.462;2024-02-15T14:22:33;9.93;;;5.95;;
85769;SDS011;76210;41.986;21.462;2024-02-15T14:24:59;11.10;;;5.85;;
85769;SDS011;76210;41.986;21.462;2024-02-15T14:27:24;13.88;;;6.28;;